Time;durP1;ratioP1;P1;durP2;ratioP2;P2;SDS_P1;SDS_P2;PMS_P1;PMS_P2;Temp;Humidity;BMP_temperature;BMP_pressure;BME280_temperature;BME280_humidity;BME280_pressure;Samples;Min_cycle;Max_cycle;Signal;HPM_P1;HPM_P2
2021/11/30 00:00:08;;;;;;;17.33;7.25;;;;;;;;;;5049126;28;20309;-62
2021/11/30 03:59:11;;;;;;;30.38;27.15;;;;;;;;;;5013654;28;20096;-64
2021/11/30 04:01:37;;;;;;;30.50;25.38;;;;;;;;;;5028216;28;20117;-62
2021/11/30 04:04:08;;;;;;;33.28;29.75;;;;;;;;;;5027952;28;20401;-63
2021/11/30 04:06:34;;;;;;;34.40;30.73;;;;;;;;;;5012702;28;20032;-62
2021/11/30 04:09:00;;;;;;;34.45;30.73;;;;;;;;;;5028557;28;20026;-62
2021/11/30 04:11:26;;;;;;;28.83;25.75;;;;;;;;;;5014624;28;20486;-62
2021/11/30 04:13:52;;;;;;;30.60;27.13;;;;;;;;;;5012830;28;20056;-63
2021/11/30 04:16:18;;;;;;;33.22;29.83;;;;;;;;;;5028365;28;20394;-62
2021/11/30 04:18:44;;;;;;;34.03;28.67;;;;;;;;;;5013162;28;20033;-63
2021/11/30 04:21:10;;;;;;;28.45;25.55;;;2.30;99.90;;;;;;5013350;28;20067;-64
2021/11/30 04:23:36;;;;;;;29.92;25.08;;;;;;;;;;5013116;28;20061;-63
2021/11/30 04:26:02;;;;;;;29.65;25.50;;;;;;;;;;5028144;28;20408;-63
2021/11/30 04:28:29;;;;;;;32.28;28.45;;;;;;;;;;5012611;28;20026;-63
2021/11/30 04:30:55;;;;;;;33.10;26.92;;;;;;;;;;5028193;28;20109;-62
2021/11/30 04:33:24;;;;;;;28.77;25.67;;;;;;;;;;5012527;28;20074;-63
2021/11/30 04:35:50;;;;;;;29.40;25.05;;;;;;;;;;5027818;28;20109;-63
2021/11/30 04:38:16;;;;;;;28.15;25.23;;;;;;;;;;5027898;28;20125;-66
2021/11/30 04:40:42;;;;;;;28.88;25.38;;;;;;;;;;5027809;28;20026;-63
2021/11/30 04:43:08;;;;;;;26.65;23.83;;;;;;;;;;5027246;28;20563;-62
2021/11/30 04:45:54;;;;;;;;;;;;;;;;;;;;;
2021/11/30 04:48:15;;;;;;;30.35;27.15;;;;;;;;;;5012418;28;20482;-62
2021/11/30 04:50:45;;;;;;;28.00;25.20;;;;;;;;;;5012541;28;20100;-62
2021/11/30 04:53:11;;;;;;;31.65;27.70;;;;;;;;;;5012316;28;20022;-63
2021/11/30 04:55:37;;;;;;;29.15;26.25;;;;;;;;;;5027815;28;20058;-63
2021/11/30 04:58:04;;;;;;;28.75;25.70;;;;;;;;;;5012457;28;20026;-63
2021/11/30 05:00:31;;;;;;;30.60;27.38;;;;;;;;;;5027754;28;20060;-62
2021/11/30 05:02:57;;;;;;;30.73;26.75;;;;;;;;;;5012140;28;20076;-63
2021/11/30 05:05:23;;;;;;;30.10;26.75;;;;;;;;;;5012280;28;20034;-63
2021/11/30 05:07:49;;;;;;;32.55;26.98;;;;;;;;;;5027830;28;20018;-63
2021/11/30 05:10:18;;;;;;;28.73;25.73;;;;;;;;;;5027601;28;20041;-63
2021/11/30 05:12:44;;;;;;;30.35;27.17;;;;;;;;;;5027302;28;20054;-63
2021/11/30 05:15:10;;;;;;;29.83;25.92;;;;;;;;;;5012133;28;20029;-65
2021/11/30 05:17:36;;;;;;;27.95;24.27;;;;;;;;;;5031163;28;20060;-63
2021/11/30 05:20:04;;;;;;;30.30;26.20;;;;;;;;;;5031665;28;20076;-63
2021/11/30 05:22:31;;;;;;;30.10;24.17;;;;;;;;;;5031121;28;20029;-63
2021/11/30 05:24:57;;;;;;;32.63;27.98;;;;;;;;;;5016125;28;20018;-63
2021/11/30 05:27:23;;;;;;;29.20;24.13;;;;;;;;;;5031167;28;20024;-63
2021/11/30 05:29:49;;;;;;;30.58;27.27;;;;;;;;;;5016132;28;20482;-63
2021/11/30 05:32:15;;;;;;;28.73;25.63;;;2.60;99.90;;;;;;5031024;28;20036;-65
2021/11/30 05:34:40;;;;;;;28.63;25.70;;;;;;;;;;5014717;28;20113;-64
2021/11/30 05:37:07;;;;;;;26.30;23.48;;;;;;;;;;5030915;28;20029;-64
2021/11/30 05:39:32;;;;;;;27.25;24.42;;;3.70;99.90;;;;;;5016163;28;20026;-65
2021/11/30 05:41:58;;;;;;;29.65;26.30;;;3.80;99.90;;;;;;5014208;28;20029;-64
2021/11/30 05:44:24;;;;;;;27.80;24.80;;;3.80;99.90;;;;;;5014310;28;20029;-64
2021/11/30 05:46:49;;;;;;;29.70;24.02;;;3.90;99.90;;;;;;5015439;28;20058;-64
2021/11/30 05:49:16;;;;;;;28.10;25.05;;;3.90;99.90;;;;;;5015609;28;20022;-64
2021/11/30 05:51:42;;;;;;;28.33;25.25;;;;;;;;;;5014284;28;20115;-64
2021/11/30 05:54:08;;;;;;;27.50;24.58;;;;;;;;;;5030619;28;20056;-63
2021/11/30 05:56:35;;;;;;;27.25;24.27;;;;;;;;;;5015333;28;20494;-63
2021/11/30 05:59:01;;;;;;;27.65;24.70;;;;;;;;;;5030674;28;20104;-64
2021/11/30 06:01:32;;;;;;;28.48;24.33;;;;;;;;;;5015341;28;20030;-64
2021/11/30 06:04:00;;;;;;;30.60;24.77;;;;;;;;;;5015105;28;20022;-64
2021/11/30 06:06:26;;;;;;;24.92;22.42;;;;;;;;;;5069018;22;20543;-61
2021/11/30 06:08:53;;;;;;;24.70;22.10;;;;;;;;;;5051287;28;20048;-62
2021/11/30 06:11:22;;;;;;;23.40;20.88;;;;;;;;;;5053190;28;20017;-62
2021/11/30 06:13:48;;;;;;;27.25;23.83;;;;;;;;;;5053144;28;20024;-62
2021/11/30 06:16:14;;;;;;;27.13;24.23;;;;;;;;;;5051661;28;20512;-62
2021/11/30 06:18:40;;;;;;;28.45;25.35;;;;;;;;;;5053055;28;20029;-62
2021/11/30 06:21:07;;;;;;;28.17;25.10;;;;;;;;;;5052320;28;20071;-62
2021/11/30 06:23:33;;;;;;;26.58;23.50;;;;;;;;;;5052464;28;20613;-62
2021/11/30 06:25:59;;;;;;;31.17;27.80;;;;;;;;;;5052648;28;20432;-62
2021/11/30 06:28:25;;;;;;;30.65;27.38;;;;;;;;;;5050540;28;20033;-62
2021/11/30 06:30:52;;;;;;;29.50;26.40;;;;;;;;;;5052809;28;20021;-63
2021/11/30 06:33:18;;;;;;;30.58;27.38;;;;;;;;;;5052283;28;20025;-61
2021/11/30 06:35:44;;;;;;;30.30;27.00;;;;;;;;;;5052366;28;20029;-62
2021/11/30 06:38:10;;;;;;;28.65;25.70;;;;;;;;;;5052454;28;20456;-61
2021/11/30 06:40:35;;;;;;;28.70;25.77;;;3.90;99.90;;;;;;5052065;28;20086;-62
2021/11/30 06:43:01;;;;;;;29.50;26.48;;;4.70;99.90;;;;;;5051769;28;20032;-61
2021/11/30 06:45:27;;;;;;;31.08;27.88;;;4.70;99.90;;;;;;5052366;28;20021;-61
2021/11/30 06:47:52;;;;;;;30.73;26.98;;;4.70;99.90;;;;;;5051041;28;20173;-62
2021/11/30 06:50:18;;;;;;;31.80;28.40;;;4.70;99.90;;;;;;5052409;28;20017;-62
2021/11/30 06:52:44;;;;;;;30.88;27.85;;;4.70;99.90;;;;;;5052195;28;20039;-61
2021/11/30 06:55:10;;;;;;;31.70;28.42;;;;;;;;;;5050826;28;20069;-62
2021/11/30 06:57:36;;;;;;;29.95;26.77;;;;;;;;;;5052023;28;20178;-62
2021/11/30 07:00:06;;;;;;;29.10;25.52;;;;;;;;;;5050615;28;20033;-60
2021/11/30 07:02:35;;;;;;;30.23;27.08;;;;;;;;;;5050055;28;20035;-62
2021/11/30 07:05:12;;;;;;;29.15;26.15;;;;;;;;;;5050473;28;20066;-61
2021/11/30 07:08:12;;;;;;;30.10;26.85;;;;;;;;;;5050884;28;20401;-61
2021/11/30 07:10:50;;;;;;;30.30;27.02;;;;;;;;;;5052319;28;20199;-61
2021/11/30 07:13:25;;;;;;;;;;;;;;;;;;5050747;28;20191;-62
2021/11/30 07:15:54;;;;;;;30.67;27.13;;;;;;;;;;5051311;28;20538;-62
2021/11/30 07:18:20;;;;;;;30.45;27.25;;;;;;;;;;5050679;28;20044;-62
2021/11/30 07:20:46;;;;;;;29.48;26.42;;;;;;;;;;5050963;28;20115;-60
2021/11/30 07:23:13;;;;;;;30.20;27.00;;;;;;;;;;5051382;28;20392;-62
2021/11/30 07:25:39;;;;;;;29.00;25.95;;;;;;;;;;5051566;28;20025;-62
2021/11/30 07:28:05;;;;;;;30.42;26.42;;;;;;;;;;5051724;28;20386;-62
2021/11/30 07:30:32;;;;;;;28.98;25.98;;;;;;;;;;5050492;28;20468;-62
2021/11/30 07:32:58;;;;;;;29.38;26.25;;;;;;;;;;5051171;28;20052;-61
2021/11/30 07:35:25;;;;;;;28.73;25.65;;;;;;;;;;5051264;28;20048;-62
2021/11/30 07:37:52;;;;;;;29.00;25.95;;;;;;;;;;5051168;28;20485;-62
2021/11/30 07:40:17;;;;;;;27.25;24.50;;;4.80;99.90;;;;;;5051321;28;20029;-65
2021/11/30 07:42:43;;;;;;;27.75;24.95;;;5.60;99.90;;;;;;5051680;28;20035;-63
2021/11/30 07:45:10;;;;;;;29.17;26.25;;;;;;;;;;5051465;28;20021;-61
2021/11/30 07:47:36;;;;;;;27.33;24.52;;;;;;;;;;5051386;28;20052;-63
2021/11/30 07:50:02;;;;;;;27.65;24.90;;;;;;;;;;5051295;28;20058;-62
2021/11/30 07:52:30;;;;;;;27.30;24.50;;;;;;;;;;5051038;28;20027;-63
2021/11/30 07:55:03;;;;;;;25.67;23.13;;;;;;;;;;5051210;28;20025;-62
2021/11/30 07:57:29;;;;;;;25.60;23.02;;;;;;;;;;5051543;28;20020;-62
2021/11/30 07:59:55;;;;;;;24.73;22.33;;;;;;;;;;5051494;28;20028;-60
2021/11/30 08:02:21;;;;;;;26.05;23.40;;;;;;;;;;5050809;28;20366;-63
2021/11/30 08:04:49;;;;;;;25.35;22.95;;;;;;;;;;5049525;28;20031;-63
2021/11/30 08:07:16;;;;;;;24.30;21.70;;;;;;;;;;5051024;28;20141;-63
2021/11/30 08:09:42;;;;;;;23.50;20.42;;;;;;;;;;5050881;28;20292;-63
2021/11/30 08:12:08;;;;;;;22.40;19.98;;;;;;;;;;5050655;28;20115;-68
2021/11/30 08:14:37;;;;;;;23.27;20.88;;;;;;;;;;5051018;28;20017;-68
2021/11/30 08:17:03;;;;;;;22.13;19.80;;;;;;;;;;5051121;28;20056;-66
2021/11/30 08:19:29;;;;;;;22.55;20.23;;;;;;;;;;5051107;28;20027;-64
2021/11/30 08:21:55;;;;;;;22.90;20.50;;;;;;;;;;5049357;28;20017;-64
2021/11/30 08:24:21;;;;;;;20.48;18.38;;;5.70;99.90;;;;;;5049784;28;20473;-58
2021/11/30 08:26:47;;;;;;;22.38;20.00;;;;;;;;;;5050596;28;20039;-58
2021/11/30 08:29:13;;;;;;;22.40;20.10;;;;;;;;;;5051013;28;20017;-58
2021/11/30 08:31:39;;;;;;;21.33;19.13;;;;;;;;;;5050991;28;20100;-57
2021/11/30 08:34:05;;;;;;;25.05;22.55;;;;;;;;;;5051246;28;20029;-61
2021/11/30 08:36:31;;;;;;;22.55;20.35;;;;;;;;;;5051155;28;20017;-59
2021/11/30 08:38:57;;;;;;;22.95;20.65;;;;;;;;;;5051121;28;20036;-58
2021/11/30 08:41:24;;;;;;;21.58;19.38;;;;;;;;;;5050776;28;20021;-60
2021/11/30 08:43:51;;;;;;;22.83;20.42;;;;;;;;;;5050697;28;20025;-62
2021/11/30 08:46:17;;;;;;;23.00;20.70;;;;;;;;;;5050750;28;20116;-59
2021/11/30 08:48:43;;;;;;;23.48;21.08;;;;;;;;;;5051112;28;20441;-59
2021/11/30 08:51:09;;;;;;;24.80;22.50;;;;;;;;;;5054076;28;20165;-60
2021/11/30 08:53:35;;;;;;;22.27;20.08;;;;;;;;;;5057143;28;20580;-60
2021/11/30 08:56:05;;;;;;;24.23;21.90;;;;;;;;;;5057277;28;20021;-60
2021/11/30 08:58:32;;;;;;;25.02;22.75;;;;;;;;;;5057176;28;20020;-60
2021/11/30 09:00:58;;;;;;;25.63;23.23;;;;;;;;;;5057419;28;20016;-60
2021/11/30 09:03:24;;;;;;;25.27;22.77;;;;;;;;;;5057158;28;20079;-60
2021/11/30 09:05:50;;;;;;;25.73;23.33;;;;;;;;;;5057133;28;20098;-63
2021/11/30 09:08:16;;;;;;;24.27;22.13;;;;;;;;;;5055910;28;20025;-60
2021/11/30 09:10:42;;;;;;;25.55;23.15;;;;;;;;;;5055857;28;20492;-61
2021/11/30 09:13:08;;;;;;;25.35;22.90;;;;;;;;;;5057191;28;20043;-60
2021/11/30 09:15:34;;;;;;;24.17;21.98;;;;;;;;;;5057314;28;20669;-61
2021/11/30 09:18:01;;;;;;;23.88;21.65;;;;;;;;;;5056980;28;20021;-61
2021/11/30 09:20:28;;;;;;;24.50;22.10;;;;;;;;;;5057177;28;20021;-64
2021/11/30 09:22:54;;;;;;;24.52;22.23;;;;;;;;;;5055364;28;20071;-65
2021/11/30 09:25:22;;;;;;;23.38;21.27;;;;;;;;;;5057118;28;20477;-65
2021/11/30 09:27:48;;;;;;;21.40;19.20;;;;;;;;;;5057028;28;20133;-65
2021/11/30 09:30:15;;;;;;;20.63;18.63;;;;;;;;;;5057152;28;20117;-65
2021/11/30 09:32:41;;;;;;;19.95;17.95;;;;;;;;;;5056727;28;20109;-65
2021/11/30 09:35:09;;;;;;;22.30;20.10;;;;;;;;;;5056969;28;20025;-65
2021/11/30 09:37:38;;;;;;;23.30;21.10;;;;;;;;;;5055562;28;20472;-64
2021/11/30 09:40:05;;;;;;;24.15;21.85;;;;;;;;;;5057120;28;20032;-66
2021/11/30 09:42:31;;;;;;;23.38;21.08;;;;;;;;;;5056622;28;20037;-66
2021/11/30 09:44:57;;;;;;;22.73;20.60;;;;;;;;;;5057298;28;20094;-65
2021/11/30 09:47:23;;;;;;;24.05;21.77;;;;;;;;;;5055769;28;20028;-65
2021/11/30 09:49:50;;;;;;;21.85;19.55;;;;;;;;;;5056881;28;20021;-65
2021/11/30 09:52:16;;;;;;;20.45;18.30;;;;;;;;;;5056788;28;20025;-65
2021/11/30 09:54:42;;;;;;;22.10;19.80;;;;;;;;;;5057136;28;20029;-64
2021/11/30 09:57:08;;;;;;;21.23;18.92;;;;;;;;;;5057138;28;20465;-65
2021/11/30 09:59:34;;;;;;;19.02;17.02;;;;;;;;;;5057123;28;20027;-65
2021/11/30 10:02:00;;;;;;;22.90;20.70;;;;;;;;;;5056749;28;20535;-66
2021/11/30 10:04:26;;;;;;;20.85;18.67;;;;;;;;;;5053853;28;20017;-66
2021/11/30 10:06:52;;;;;;;20.50;18.40;;;;;;;;;;5052457;28;20029;-64
2021/11/30 10:09:23;;;;;;;19.83;17.80;;;;;;;;;;5052609;28;20511;-66
2021/11/30 10:11:57;;;;;;;20.35;18.25;;;;;;;;;;5052133;28;20025;-66
2021/11/30 10:14:26;;;;;;;19.75;17.75;;;;;;;;;;5052612;28;20037;-65
2021/11/30 10:16:52;;;;;;;;;;;;;;;;;;5052878;28;20025;-64
2021/11/30 10:19:27;;;;;;;20.08;18.08;;;;;;;;;;5052909;28;19905;-64
2021/11/30 10:21:55;;;;;;;20.40;18.30;;;;;;;;;;5053086;28;20676;-65
2021/11/30 10:24:21;;;;;;;18.85;16.95;;;;;;;;;;5053745;28;20021;-65
2021/11/30 10:26:47;;;;;;;18.88;17.02;;;;;;;;;;5052033;28;20048;-63
2021/11/30 10:29:15;;;;;;;18.95;17.13;;;;;;;;;;5051695;28;20465;-63
2021/11/30 10:31:46;;;;;;;20.10;18.10;;;;;;;;;;5051686;28;20049;-63
2021/11/30 10:34:12;;;;;;;20.35;18.35;;;;;;;;;;5052976;28;20017;-62
2021/11/30 10:36:54;;;;;;;20.73;18.73;;;;;;;;;;5052569;28;20032;-62
2021/11/30 10:39:22;;;;;;;21.40;19.27;;;;;;;;;;5052960;28;20036;-63
2021/11/30 10:41:49;;;;;;;21.02;18.83;;;;;;;;;;5052598;28;20768;-62
2021/11/30 10:44:15;;;;;;;19.75;17.75;;;;;;;;;;5051505;28;20389;-61
2021/11/30 10:46:41;;;;;;;20.70;18.60;;;;;;;;;;5051498;28;20029;-62
2021/11/30 10:49:09;;;;;;;20.00;18.00;;;;;;;;;;5051401;28;20029;-61
2021/11/30 10:51:50;;;;;;;21.43;19.33;;;;;;;;;;5050397;28;20036;-60
2021/11/30 10:54:16;;;;;;;20.80;18.80;;;;;;;;;;5050916;28;20107;-62
2021/11/30 10:56:42;;;;;;;22.40;18.38;;;;;;;;;;5051883;28;20056;-61
2021/11/30 10:59:08;;;;;;;21.15;17.60;;;;;;;;;;5052430;28;20024;-61
2021/11/30 11:01:34;;;;;;;17.27;14.50;;;;;;;;;;5050915;28;20063;-60
2021/11/30 11:04:12;;;;;;;23.13;14.00;;;;;;;;;;5050659;28;20029;-63
2021/11/30 11:06:39;;;;;;;16.75;10.48;;;;;;;;;;5050955;28;20075;-63
2021/11/30 11:09:09;;;;;;;20.27;10.23;;;;;;;;;;5052168;28;20024;-62
2021/11/30 11:11:37;;;;;;;19.17;8.93;;;;;;;;;;5052018;28;20485;-61
2021/11/30 11:14:04;;;;;;;23.50;8.90;;;;;;;;;;5052454;28;20032;-62
2021/11/30 11:16:32;;;;;;;24.83;8.75;;;;;;;;;;5052794;28;20036;-62
2021/11/30 11:18:59;;;;;;;17.88;8.90;;;;;;;;;;5051682;28;20378;-63
2021/11/30 11:21:27;;;;;;;17.80;8.65;;;;;;;;;;5050206;28;20418;-63
2021/11/30 11:24:01;;;;;;;21.37;10.47;;;;;;;;;;5051508;28;20509;-64
2021/11/30 11:26:29;;;;;;;22.90;10.07;;;;;;;;;;5052104;28;20069;-61
2021/11/30 11:28:56;;;;;;;17.03;8.30;;;;;;;;;;5052245;28;20021;-62
2021/11/30 11:31:23;;;;;;;18.15;9.23;;;;;;;;;;5050461;28;20039;-62
2021/11/30 11:33:52;;;;;;;16.40;7.25;;;;;;;;;;5051385;28;20032;-62
2021/11/30 11:36:19;;;;;;;18.17;7.50;;;;;;;;;;5051482;28;20032;-63
2021/11/30 11:38:45;;;;;;;16.70;7.90;;;;;;;;;;5051625;28;20034;-62
2021/11/30 11:41:11;;;;;;;17.55;7.28;;;;;;;;;;5051137;28;20036;-62
2021/11/30 11:43:38;;;;;;;17.10;7.28;;;;;;;;;;5051096;28;20021;-62
2021/11/30 11:46:07;;;;;;;18.83;7.20;;;;;;;;;;5051093;28;20468;-62
2021/11/30 11:48:33;;;;;;;18.98;7.05;;;;;;;;;;5051443;28;20448;-62
2021/11/30 11:51:01;;;;;;;16.67;6.25;;;;;;;;;;5051650;28;20075;-62
2021/11/30 11:53:31;;;;;;;15.45;6.35;;;;;;;;;;5050027;28;20025;-61
2021/11/30 11:56:07;;;;;;;16.30;6.53;;;;;;;;;;5051372;28;20052;-62
2021/11/30 11:58:37;;;;;;;15.75;6.65;;;;;;;;;;5050140;28;20119;-62
2021/11/30 12:01:03;;;;;;;16.25;6.07;;;6.30;99.90;;;;;;5050925;28;20027;-62
2021/11/30 12:03:48;;;;;;;15.85;5.57;;;;;;;;;;5050519;28;20029;-63
2021/11/30 12:06:17;;;;;;;13.45;5.30;;;;;;;;;;5049137;28;20025;-62
2021/11/30 12:09:03;;;;;;;16.38;5.40;;;;;;;;;;5050033;28;20404;-63
2021/11/30 12:11:43;;;;;;;19.52;5.65;;;;;;;;;;5046798;22;20051;-63
2021/11/30 12:14:13;;;;;;;16.17;5.78;;;;;;;;;;5030628;28;20028;-64
2021/11/30 12:16:58;;;;;;;14.00;5.55;;;;;;;;;;5030271;28;20496;-64
2021/11/30 12:19:26;;;;;;;15.27;5.28;;;;;;;;;;5022797;28;20034;-63
2021/11/30 12:21:52;;;;;;;15.15;5.70;;;;;;;;;;5011663;28;20076;-63
2021/11/30 12:24:32;;;;;;;19.42;5.90;;;;;;;;;;5011673;28;20116;-64
2021/11/30 12:27:01;;;;;;;16.90;5.43;;;;;;;;;;5016804;28;20040;-64
2021/11/30 12:29:30;;;;;;;16.05;6.35;;;;;;;;;;5026932;28;20030;-64
2021/11/30 12:31:56;;;;;;;22.95;6.13;;;;;;;;;;5011732;28;20464;-63
2021/11/30 12:34:36;;;;;;;19.23;5.93;;;;;;;;;;5017307;28;20036;-64
2021/11/30 12:37:16;;;;;;;16.70;6.05;;;;;;;;;;5029818;28;20098;-63
2021/11/30 12:40:04;;;;;;;16.20;6.55;;;;;;;;;;5012396;28;20470;-63
2021/11/30 12:42:30;;;;;;;14.68;5.78;;;;;;;;;;5031053;28;20550;-64
2021/11/30 12:44:56;;;;;;;13.73;4.78;;;;;;;;;;5029991;28;20510;-65
2021/11/30 12:47:27;;;;;;;19.75;5.82;;;;;;;;;;5028936;28;20026;-65
2021/11/30 12:49:53;;;;;;;15.95;5.32;;;;;;;;;;5029484;28;20034;-64
2021/11/30 12:52:22;;;;;;;14.57;4.97;;;;;;;;;;5011937;28;20365;-64
2021/11/30 12:54:48;;;;;;;13.25;4.57;;;;;;;;;;5024498;28;20030;-64
2021/11/30 12:57:19;;;;;;;15.52;4.90;;;;;;;;;;5012402;28;20026;-65
2021/11/30 13:00:09;;;;;;;16.40;5.10;;;;;;;;;;5030728;28;20434;-65
2021/11/30 13:02:36;;;;;;;12.82;4.60;;;;;;;;;;5024615;28;20038;-63
2021/11/30 13:05:02;;;;;;;13.80;4.25;;;;;;;;;;5015711;28;20113;-64
2021/11/30 13:07:28;;;;;;;13.27;4.70;;;8.70;99.90;;;;;;5019397;28;20033;-64
2021/11/30 13:09:55;;;;;;;18.88;5.05;;;8.50;99.90;;;;;;5010453;28;20225;-63
2021/11/30 13:12:25;;;;;;;11.65;3.67;;;8.50;99.90;;;;;;5030750;28;20366;-65
2021/11/30 13:14:53;;;;;;;12.38;4.00;;;8.40;99.90;;;;;;5030156;28;20049;-64
2021/11/30 13:17:20;;;;;;;15.52;4.22;;;8.40;99.90;;;;;;5021470;28;20363;-64
2021/11/30 13:19:47;;;;;;;13.13;4.05;;;8.30;99.90;;;;;;5017387;28;20116;-64
2021/11/30 13:22:14;;;;;;;12.15;4.40;;;8.30;99.90;;;;;;5030696;28;20362;-64
2021/11/30 13:24:46;;;;;;;14.25;4.57;;;8.20;99.90;;;;;;5029256;28;20053;-64
2021/11/30 13:27:23;;;;;;;9.93;4.07;;;8.20;99.90;;;;;;5031129;28;20021;-65
2021/11/30 13:29:54;;;;;;;10.47;4.63;;;8.10;99.90;;;;;;5020041;28;20022;-64
2021/11/30 13:32:31;;;;;;;9.30;3.80;;;8.10;99.90;;;;;;5028659;28;20438;-65
2021/11/30 13:35:06;;;;;;;10.63;4.05;;;8.00;99.90;;;;;;5031059;28;20083;-64
2021/11/30 13:37:32;;;;;;;11.60;4.03;;;8.10;99.90;;;;;;5012443;28;20108;-64
2021/11/30 13:39:58;;;;;;;16.25;4.65;;;8.00;99.90;;;;;;5013663;28;20033;-64
2021/11/30 13:42:23;;;;;;;11.07;4.03;;;8.00;99.90;;;;;;5031349;28;20076;-64
2021/11/30 13:44:51;;;;;;;11.48;4.30;;;8.00;99.90;;;;;;5021068;28;20026;-64
2021/11/30 13:47:17;;;;;;;12.10;4.30;;;7.90;99.90;;;;;;5034170;28;20021;-65
2021/11/30 13:49:46;;;;;;;11.77;4.40;;;7.90;99.90;;;;;;5019259;28;20468;-64
2021/11/30 13:52:22;;;;;;;9.23;3.88;;;7.90;99.90;;;;;;5033545;28;20470;-64
2021/11/30 13:55:01;;;;;;;11.43;4.03;;;7.90;99.90;;;;;;5031531;28;20165;-64
2021/11/30 13:57:29;;;;;;;11.52;4.20;;;7.90;99.90;;;;;;5024388;28;20025;-64
2021/11/30 14:00:01;;;;;;;15.98;4.43;;;7.80;99.90;;;;;;5013355;28;20552;-65
2021/11/30 14:02:53;;;;;;;11.98;4.50;;;7.90;99.90;;;;;;5014278;28;20029;-64
2021/11/30 14:05:19;;;;;;;14.55;4.85;;;7.80;99.90;;;;;;5013826;28;20044;-64
2021/11/30 14:08:03;;;;;;;13.00;4.13;;;7.90;99.90;;;;;;5032969;28;20022;-64
2021/11/30 14:10:31;;;;;;;18.58;4.97;;;7.90;99.90;;;;;;5031739;28;20401;-65
2021/11/30 14:13:01;;;;;;;18.43;5.73;;;7.90;99.90;;;;;;5031527;28;20456;-64
2021/11/30 14:15:26;;;;;;;9.13;4.20;;;7.90;99.90;;;;;;5017536;28;20693;-65
2021/11/30 14:18:08;;;;;;;12.15;4.28;;;7.90;99.90;;;;;;5033795;28;20057;-64
2021/11/30 14:20:34;;;;;;;11.30;4.20;;;7.90;99.90;;;;;;5022357;28;20420;-65
2021/11/30 14:23:00;;;;;;;9.00;4.15;;;7.90;99.90;;;;;;5013918;28;20109;-65
2021/11/30 14:25:28;;;;;;;13.57;4.18;;;7.90;99.90;;;;;;5017607;28;20100;-65
2021/11/30 14:27:59;;;;;;;11.60;3.88;;;7.90;99.90;;;;;;4683100;28;9999904;-65
2021/11/30 14:30:34;;;;;;;10.75;4.00;;;7.90;99.90;;;;;;5026203;28;20054;-65
2021/11/30 14:33:01;;;;;;;10.43;4.10;;;7.90;99.90;;;;;;5011436;28;20034;-64
2021/11/30 14:35:40;;;;;;;13.48;4.55;;;7.90;99.90;;;;;;5020106;28;20025;-64
2021/11/30 14:38:08;;;;;;;12.32;4.70;;;7.90;99.90;;;;;;5029158;28;20030;-64
2021/11/30 14:40:38;;;;;;;13.75;4.40;;;7.80;99.90;;;;;;5024827;28;20034;-65
2021/11/30 14:43:14;;;;;;;13.95;5.00;;;7.80;99.90;;;;;;5010334;28;20080;-64
2021/11/30 14:45:46;;;;;;;11.05;4.53;;;7.80;99.90;;;;;;5021220;28;20495;-62
2021/11/30 14:48:13;;;;;;;11.30;4.43;;;7.80;99.90;;;;;;5029815;28;20049;-63
2021/11/30 14:50:52;;;;;;;12.50;4.80;;;7.70;99.90;;;;;;5030486;28;20490;-64
2021/11/30 14:53:19;;;;;;;14.43;5.35;;;7.70;99.90;;;;;;5022949;28;20037;-62
2021/11/30 14:55:57;;;;;;;13.20;5.55;;;7.70;99.90;;;;;;5024057;28;20371;-63
2021/11/30 14:58:31;;;;;;;11.68;5.28;;;7.70;99.90;;;;;;5023324;28;20033;-64
2021/11/30 15:01:12;;;;;;;14.65;5.95;;;7.70;99.90;;;;;;5009322;28;20065;-63
2021/11/30 15:03:47;;;;;;;14.70;6.25;;;7.70;99.90;;;;;;5010592;28;20034;-62
2021/11/30 15:06:16;;;;;;;13.70;5.60;;;7.60;99.90;;;;;;5016993;28;20025;-63
2021/11/30 15:08:41;;;;;;;;;;;7.60;99.90;;;;;;5022705;28;20026;-63
2021/11/30 15:11:14;;;;;;;13.75;5.70;;;7.60;99.90;;;;;;5012531;28;19947;-63
2021/11/30 15:14:07;;;;;;;13.13;5.45;;;7.60;99.90;;;;;;5020115;28;20556;-62
2021/11/30 15:16:37;;;;;;;12.48;5.88;;;7.60;99.90;;;;;;5017664;28;20026;-65
2021/11/30 15:19:10;;;;;;;13.30;5.95;;;7.60;99.90;;;;;;5017804;28;20022;-66
2021/11/30 15:21:38;;;;;;;19.25;7.07;;;7.60;99.90;;;;;;5017221;28;20022;-63
2021/11/30 15:24:05;;;;;;;13.57;6.00;;;7.60;99.90;;;;;;5023194;28;20076;-64
2021/11/30 15:26:36;;;;;;;13.48;5.85;;;7.50;99.90;;;;;;5013809;28;20030;-66
2021/11/30 15:29:07;;;;;;;13.00;6.00;;;7.50;99.90;;;;;;5028434;28;20018;-64
2021/11/30 15:31:32;;;;;;;15.23;6.60;;;7.50;99.90;;;;;;5016908;28;20049;-63
2021/11/30 15:33:58;;;;;;;13.85;5.72;;;7.50;99.90;;;;;;5008873;28;20104;-63
2021/11/30 15:36:24;;;;;;;17.05;6.53;;;7.50;99.90;;;;;;5008967;28;20030;-63
2021/11/30 15:38:50;;;;;;;13.10;6.15;;;7.50;99.90;;;;;;5025321;28;20049;-63
2021/11/30 15:41:15;;;;;;;14.63;6.43;;;7.60;99.90;;;;;;5028404;28;20405;-63
2021/11/30 15:43:41;;;;;;;13.60;5.75;;;7.50;99.90;;;;;;5029286;28;20036;-63
2021/11/30 15:46:06;;;;;;;15.63;6.25;;;7.50;99.90;;;;;;5028179;28;20079;-64
2021/11/30 15:48:32;;;;;;;13.70;6.05;;;7.50;99.90;;;;;;5029506;28;20033;-63
2021/11/30 15:50:58;;;;;;;13.60;6.07;;;7.50;99.90;;;;;;5021539;28;20061;-63
2021/11/30 15:53:25;;;;;;;12.80;5.65;;;7.50;99.90;;;;;;5019886;28;20030;-62
2021/11/30 15:58:36;;;;;;;13.20;5.30;;;7.60;99.90;;;;;;5017865;28;20032;-62
2021/11/30 16:01:01;;;;;;;14.27;5.40;;;7.50;99.90;;;;;;5019395;28;20037;-63
2021/11/30 16:03:27;;;;;;;13.55;5.55;;;7.50;99.90;;;;;;5029515;28;20033;-62
2021/11/30 16:05:53;;;;;;;14.23;5.25;;;7.50;99.90;;;;;;5015162;28;20678;-64
2021/11/30 16:08:19;;;;;;;13.25;5.40;;;7.50;99.90;;;;;;5027069;28;20066;-64
2021/11/30 16:10:44;;;;;;;14.35;5.45;;;7.50;99.90;;;;;;5017216;28;20041;-64
2021/11/30 16:13:10;;;;;;;14.70;5.47;;;7.50;99.90;;;;;;5017065;28;20155;-64
2021/11/30 16:15:35;;;;;;;15.43;5.75;;;7.60;99.90;;;;;;5018535;28;20590;-64
2021/11/30 16:18:01;;;;;;;12.32;5.15;;;7.60;99.90;;;;;;5018857;28;20021;-65
2021/11/30 16:20:27;;;;;;;17.73;5.80;;;7.60;99.90;;;;;;5017298;28;20497;-64
2021/11/30 16:22:53;;;;;;;13.32;5.45;;;7.50;99.90;;;;;;5015108;28;20033;-64
2021/11/30 16:25:19;;;;;;;14.95;5.85;;;7.60;99.90;;;;;;5010172;28;20033;-64
2021/11/30 16:27:45;;;;;;;15.70;5.80;;;7.60;99.90;;;;;;5028870;28;20025;-63
2021/11/30 16:30:12;;;;;;;14.43;5.78;;;7.60;99.90;;;;;;5023102;28;20104;-64
2021/11/30 16:32:39;;;;;;;13.48;5.25;;;7.60;99.90;;;;;;5021417;28;20033;-63
2021/11/30 16:35:11;;;;;;;18.42;6.13;;;7.60;99.90;;;;;;5028260;28;20025;-65
2021/11/30 16:37:36;;;;;;;15.07;5.45;;;7.60;99.90;;;;;;5025442;28;20029;-65
2021/11/30 16:40:03;;;;;;;15.63;5.80;;;7.60;99.90;;;;;;5026374;28;20039;-65
2021/11/30 16:42:28;;;;;;;15.30;6.43;;;7.50;99.90;;;;;;5025687;28;20030;-64
2021/11/30 16:44:54;;;;;;;15.25;5.90;;;7.60;99.90;;;;;;5012805;28;20040;-64
2021/11/30 16:47:20;;;;;;;16.83;6.35;;;7.60;99.90;;;;;;5017238;28;20021;-64
2021/11/30 16:49:46;;;;;;;15.18;5.63;;;7.60;99.90;;;;;;5015687;28;20100;-65
2021/11/30 16:52:13;;;;;;;17.23;6.50;;;7.50;99.90;;;;;;5033099;28;20048;-63
2021/11/30 16:54:38;;;;;;;14.25;5.60;;;7.50;99.90;;;;;;5039706;28;20025;-63
2021/11/30 16:57:04;;;;;;;17.13;5.88;;;7.50;99.90;;;;;;5030833;28;20043;-63
2021/11/30 16:59:30;;;;;;;15.63;6.13;;;7.50;99.90;;;;;;5027499;28;20029;-62
2021/11/30 17:01:55;;;;;;;14.80;5.40;;;7.50;99.90;;;;;;5021166;28;20057;-65
2021/11/30 17:04:23;;;;;;;12.77;5.50;;;7.50;99.90;;;;;;5008341;28;20030;-64
2021/11/30 17:06:49;;;;;;;19.33;5.97;;;7.50;99.90;;;;;;5021493;28;20021;-64
2021/11/30 17:09:16;;;;;;;16.00;5.47;;;7.50;99.90;;;;;;5031763;28;20022;-64
2021/11/30 17:11:42;;;;;;;13.27;5.20;;;7.50;99.90;;;;;;5048956;28;20048;-64
2021/11/30 17:14:08;;;;;;;15.85;5.38;;;7.50;99.90;;;;;;5044349;28;20065;-64
2021/11/30 17:16:34;;;;;;;14.95;6.07;;;7.50;99.90;;;;;;5034345;28;20052;-64
2021/11/30 17:19:00;;;;;;;14.18;5.30;;;7.50;99.90;;;;;;5034467;28;20033;-63
2021/11/30 17:21:26;;;;;;;14.55;5.10;;;7.50;99.90;;;;;;5034728;28;20793;-65
2021/11/30 17:23:56;;;;;;;13.77;5.35;;;7.50;99.90;;;;;;5035963;28;20021;-64
2021/11/30 17:26:25;;;;;;;15.70;5.70;;;7.50;99.90;;;;;;5034371;28;20025;-64
2021/11/30 17:28:51;;;;;;;19.58;6.18;;;7.50;99.90;;;;;;5035691;28;20034;-64
2021/11/30 17:31:18;;;;;;;16.73;6.10;;;7.50;99.90;;;;;;5015761;28;20485;-64
2021/11/30 17:33:43;;;;;;;13.52;5.13;;;7.50;99.90;;;;;;5016108;28;20474;-64
2021/11/30 17:36:09;;;;;;;13.77;5.28;;;7.50;99.90;;;;;;5016135;28;20028;-64
2021/11/30 17:38:35;;;;;;;19.77;6.60;;;7.50;99.90;;;;;;5034527;28;20083;-64
2021/11/30 17:41:01;;;;;;;15.18;5.22;;;7.50;99.90;;;;;;5035256;28;20406;-65
2021/11/30 17:43:26;;;;;;;14.40;5.82;;;7.50;99.90;;;;;;5033400;28;20033;-65
2021/11/30 17:45:52;;;;;;;16.77;6.13;;;7.50;99.90;;;;;;5035081;28;20375;-63